sensor_id;sensor_type;location;lat;lon;timestamp;pressure;altitude;pressure_sealevel;temperature;humidity
71889;BME280;59762;49.998;14.858;2023-06-22T00:01:49;97660.34;;;20.02;87.82
71889;BME280;59762;49.998;14.858;2023-06-22T00:04:15;97663.47;;;19.99;87.85
71889;BME280;59762;49.998;14.858;2023-06-22T00:06:40;97662.03;;;19.97;87.84
71889;BME280;59762;49.998;14.858;2023-06-22T00:09:06;97668.69;;;19.94;88.04
71889;BME280;59762;49.998;14.858;2023-06-22T00:11:33;97662.03;;;19.97;87.72
71889;BME280;59762;49.998;14.858;2023-06-22T00:13:59;97658.25;;;19.98;87.22
71889;BME280;59762;49.998;14.858;2023-06-22T00:16:25;97670.16;;;19.97;87.58
71889;BME280;59762;49.998;14.858;2023-06-22T00:18:51;97676.00;;;19.87;88.08
71889;BME280;59762;49.998;14.858;2023-06-22T00:21:16;97670.38;;;19.82;88.63
71889;BME280;59762;49.998;14.858;2023-06-22T00:23:42;97678.31;;;19.77;88.84
71889;BME280;59762;49.998;14.858;2023-06-22T00:26:08;97674.53;;;19.78;88.54
71889;BME280;59762;49.998;14.858;2023-06-22T00:28:34;97685.78;;;19.75;88.58
71889;BME280;59762;49.998;14.858;2023-06-22T00:31:00;97684.13;;;19.74;88.54
71889;BME280;59762;49.998;14.858;2023-06-22T00:33:26;97686.63;;;19.82;88.08
71889;BME280;59762;49.998;14.858;2023-06-22T00:35:52;97683.31;;;19.80;88.20
71889;BME280;59762;49.998;14.858;2023-06-22T00:38:20;97688.28;;;19.77;88.25
71889;BME280;59762;49.998;14.858;2023-06-22T00:40:46;97694.38;;;19.72;88.98
71889;BME280;59762;49.998;14.858;2023-06-22T00:43:12;97703.09;;;19.68;88.76
71889;BME280;59762;49.998;14.858;2023-06-22T00:45:38;97689.16;;;19.71;88.68
71889;BME280;59762;49.998;14.858;2023-06-22T00:48:04;97695.41;;;19.65;89.05
71889;BME280;59762;49.998;14.858;2023-06-22T00:50:32;97694.97;;;19.61;89.19
71889;BME280;59762;49.998;14.858;2023-06-22T00:53:01;97687.03;;;19.53;89.57
71889;BME280;59762;49.998;14.858;2023-06-22T00:55:35;97683.31;;;19.54;89.44
71889;BME280;59762;49.998;14.858;2023-06-22T00:58:03;97681.41;;;19.48;89.60
71889;BME280;59762;49.998;14.858;2023-06-22T01:00:33;97689.34;;;19.50;89.59
71889;BME280;59762;49.998;14.858;2023-06-22T01:02:59;97679.56;;;19.49;89.67
71889;BME280;59762;49.998;14.858;2023-06-22T01:05:25;97670.38;;;19.37;90.37
71889;BME280;59762;49.998;14.858;2023-06-22T01:10:43;97664.53;;;19.33;90.54
71889;BME280;59762;49.998;14.858;2023-06-22T01:18:40;97658.09;;;19.41;89.82
71889;BME280;59762;49.998;14.858;2023-06-22T01:21:12;97646.00;;;19.43;89.54
71889;BME280;59762;49.998;14.858;2023-06-22T01:26:42;97640.59;;;19.50;88.64
71889;BME280;59762;49.998;14.858;2023-06-22T01:29:11;97633.72;;;19.54;88.15
71889;BME280;59762;49.998;14.858;2023-06-22T01:31:41;97645.41;;;19.54;88.32
71889;BME280;59762;49.998;14.858;2023-06-22T01:34:08;97639.13;;;19.54;88.42
71889;BME280;59762;49.998;14.858;2023-06-22T01:36:35;97637.28;;;19.48;88.52
71889;BME280;59762;49.998;14.858;2023-06-22T01:39:02;97637.88;;;19.50;88.31
71889;BME280;59762;49.998;14.858;2023-06-22T01:41:30;97640.38;;;19.51;87.98
71889;BME280;59762;49.998;14.858;2023-06-22T01:43:57;97633.09;;;19.58;87.28
71889;BME280;59762;49.998;14.858;2023-06-22T01:46:23;97636.63;;;19.59;87.27
71889;BME280;59762;49.998;14.858;2023-06-22T01:48:50;97626.84;;;19.64;86.57
71889;BME280;59762;49.998;14.858;2023-06-22T01:51:16;97641.84;;;19.67;86.62
71889;BME280;59762;49.998;14.858;2023-06-22T01:53:41;97638.06;;;19.68;86.50
71889;BME280;59762;49.998;14.858;2023-06-22T01:56:08;97637.69;;;19.64;86.66
71889;BME280;59762;49.998;14.858;2023-06-22T01:58:37;97641.84;;;19.60;86.74
71889;BME280;59762;49.998;14.858;2023-06-22T02:01:11;97646.22;;;19.61;86.96
71889;BME280;59762;49.998;14.858;2023-06-22T02:03:42;97634.75;;;19.66;86.51
71889;BME280;59762;49.998;14.858;2023-06-22T02:06:14;97643.69;;;19.66;86.42
71889;BME280;59762;49.998;14.858;2023-06-22T02:08:47;97649.56;;;19.63;86.56
71889;BME280;59762;49.998;14.858;2023-06-22T02:11:16;97654.97;;;19.57;86.92
71889;BME280;59762;49.998;14.858;2023-06-22T02:13:42;97658.72;;;19.49;87.36
71889;BME280;59762;49.998;14.858;2023-06-22T02:16:11;97652.06;;;19.45;87.70
71889;BME280;59762;49.998;14.858;2023-06-22T02:18:37;97658.50;;;19.38;87.98
71889;BME280;59762;49.998;14.858;2023-06-22T02:21:03;97668.50;;;19.31;88.56
71889;BME280;59762;49.998;14.858;2023-06-22T02:23:28;97677.03;;;19.28;88.82
71889;BME280;59762;49.998;14.858;2023-06-22T02:25:54;97670.78;;;19.27;88.84
71889;BME280;59762;49.998;14.858;2023-06-22T02:28:20;97671.81;;;19.33;88.64
71889;BME280;59762;49.998;14.858;2023-06-22T02:30:45;97677.03;;;19.34;88.44
71889;BME280;59762;49.998;14.858;2023-06-22T02:33:11;97679.13;;;19.26;88.97
71889;BME280;59762;49.998;14.858;2023-06-22T02:35:37;97664.94;;;19.24;89.03
71889;BME280;59762;49.998;14.858;2023-06-22T02:38:03;97664.69;;;19.19;89.21
71889;BME280;59762;49.998;14.858;2023-06-22T02:40:30;97663.84;;;19.18;89.26
71889;BME280;59762;49.998;14.858;2023-06-22T02:42:56;97667.00;;;19.22;89.37
71889;BME280;59762;49.998;14.858;2023-06-22T02:45:23;97659.91;;;19.21;89.19
71889;BME280;59762;49.998;14.858;2023-06-22T02:47:49;97667.00;;;19.15;89.20
71889;BME280;59762;49.998;14.858;2023-06-22T02:50:15;97673.84;;;19.11;89.39
71889;BME280;59762;49.998;14.858;2023-06-22T02:52:41;97670.09;;;19.06;89.72
71889;BME280;59762;49.998;14.858;2023-06-22T02:55:07;97672.59;;;19.07;89.61
71889;BME280;59762;49.998;14.858;2023-06-22T02:57:33;97676.09;;;19.01;90.12
71889;BME280;59762;49.998;14.858;2023-06-22T02:59:59;97677.13;;;18.94;90.42
71889;BME280;59762;49.998;14.858;2023-06-22T03:02:25;97656.31;;;18.88;90.55
71889;BME280;59762;49.998;14.858;2023-06-22T03:04:52;97665.03;;;18.90;90.78
71889;BME280;59762;49.998;14.858;2023-06-22T03:07:21;97669.00;;;18.87;90.87
71889;BME280;59762;49.998;14.858;2023-06-22T03:09:47;97662.75;;;18.80;91.00
71889;BME280;59762;49.998;14.858;2023-06-22T03:12:12;97656.88;;;18.77;91.24
71889;BME280;59762;49.998;14.858;2023-06-22T03:14:38;97655.66;;;18.79;91.29
71889;BME280;59762;49.998;14.858;2023-06-22T03:17:04;97667.31;;;18.80;91.27
71889;BME280;59762;49.998;14.858;2023-06-22T03:19:30;97665.44;;;18.80;91.33
71889;BME280;59762;49.998;14.858;2023-06-22T03:21:58;97665.88;;;18.84;91.49
71889;BME280;59762;49.998;14.858;2023-06-22T03:24:24;97656.50;;;18.86;91.12
71889;BME280;59762;49.998;14.858;2023-06-22T03:26:50;97660.69;;;18.95;90.77
71889;BME280;59762;49.998;14.858;2023-06-22T03:29:16;97660.53;;;19.10;90.64
71889;BME280;59762;49.998;14.858;2023-06-22T03:31:41;97657.41;;;19.13;90.03
71889;BME280;59762;49.998;14.858;2023-06-22T03:34:07;97656.84;;;19.30;89.88
71889;BME280;59762;49.998;14.858;2023-06-22T03:36:32;97661.38;;;19.23;89.73
71889;BME280;59762;49.998;14.858;2023-06-22T03:38:58;97675.59;;;19.38;89.58
71889;BME280;59762;49.998;14.858;2023-06-22T03:41:24;97670.78;;;19.34;89.50
71889;BME280;59762;49.998;14.858;2023-06-22T03:43:51;97674.72;;;19.31;89.59
71889;BME280;59762;49.998;14.858;2023-06-22T03:46:16;97669.97;;;19.40;89.86
71889;BME280;59762;49.998;14.858;2023-06-22T03:48:42;97676.84;;;19.29;90.02
71889;BME280;59762;49.998;14.858;2023-06-22T03:51:08;97677.25;;;19.39;89.73
71889;BME280;59762;49.998;14.858;2023-06-22T03:53:33;97686.41;;;20.03;87.00
71889;BME280;59762;49.998;14.858;2023-06-22T03:55:59;97679.97;;;19.91;86.56
71889;BME280;59762;49.998;14.858;2023-06-22T03:58:25;97686.16;;;20.44;85.33
71889;BME280;59762;49.998;14.858;2023-06-22T04:00:52;97673.66;;;20.87;82.79
71889;BME280;59762;49.998;14.858;2023-06-22T04:03:18;97675.34;;;21.26;81.79
71889;BME280;59762;49.998;14.858;2023-06-22T04:05:44;97671.78;;;21.87;79.82
71889;BME280;59762;49.998;14.858;2023-06-22T04:08:10;97673.31;;;22.01;78.15
71889;BME280;59762;49.998;14.858;2023-06-22T04:10:36;97670.38;;;22.21;77.85
71889;BME280;59762;49.998;14.858;2023-06-22T04:13:02;97673.59;;;21.93;78.49
71889;BME280;59762;49.998;14.858;2023-06-22T04:15:27;97675.41;;;22.78;76.22
71889;BME280;59762;49.998;14.858;2023-06-22T04:17:55;97673.91;;;22.64;75.60
71889;BME280;59762;49.998;14.858;2023-06-22T04:20:21;97675.28;;;22.73;75.83
71889;BME280;59762;49.998;14.858;2023-06-22T04:22:47;97678.00;;;23.02;74.98
71889;BME280;59762;49.998;14.858;2023-06-22T04:25:12;97682.38;;;22.56;76.61
71889;BME280;59762;49.998;14.858;2023-06-22T04:27:38;97675.91;;;23.04;75.25
71889;BME280;59762;49.998;14.858;2023-06-22T04:30:08;97664.38;;;23.50;73.26
71889;BME280;59762;49.998;14.858;2023-06-22T04:32:35;97657.69;;;23.34;73.59
71889;BME280;59762;49.998;14.858;2023-06-22T04:35:05;97653.19;;;23.40;72.91
71889;BME280;59762;49.998;14.858;2023-06-22T04:37:32;97657.00;;;24.03;69.70
71889;BME280;59762;49.998;14.858;2023-06-22T04:39:58;97657.84;;;24.26;69.38
71889;BME280;59762;49.998;14.858;2023-06-22T04:42:27;97656.25;;;23.84;70.36
71889;BME280;59762;49.998;14.858;2023-06-22T04:44:53;97657.81;;;24.38;70.00
71889;BME280;59762;49.998;14.858;2023-06-22T04:47:19;97661.50;;;24.32;69.86
71889;BME280;59762;49.998;14.858;2023-06-22T04:49:45;97652.94;;;24.28;69.31
71889;BME280;59762;49.998;14.858;2023-06-22T04:52:12;97659.72;;;24.60;67.81
71889;BME280;59762;49.998;14.858;2023-06-22T04:54:39;97659.97;;;24.13;70.26
71889;BME280;59762;49.998;14.858;2023-06-22T04:57:13;97660.66;;;24.31;70.31
71889;BME280;59762;49.998;14.858;2023-06-22T04:59:40;97661.63;;;24.99;67.56
71889;BME280;59762;49.998;14.858;2023-06-22T05:02:07;97665.00;;;24.78;68.17
71889;BME280;59762;49.998;14.858;2023-06-22T05:04:34;97663.31;;;24.89;68.14
71889;BME280;59762;49.998;14.858;2023-06-22T05:07:02;97677.22;;;24.87;68.58
71889;BME280;59762;49.998;14.858;2023-06-22T05:09:28;97678.44;;;24.80;67.63
71889;BME280;59762;49.998;14.858;2023-06-22T05:11:54;97686.88;;;24.44;69.85
71889;BME280;59762;49.998;14.858;2023-06-22T05:14:21;97688.66;;;24.27;69.84
71889;BME280;59762;49.998;14.858;2023-06-22T05:16:48;97683.78;;;24.63;68.68
71889;BME280;59762;49.998;14.858;2023-06-22T05:19:13;97692.56;;;25.28;68.15
71889;BME280;59762;49.998;14.858;2023-06-22T05:21:39;97689.69;;;25.23;67.58
71889;BME280;59762;49.998;14.858;2023-06-22T05:24:05;97697.66;;;24.85;68.60
71889;BME280;59762;49.998;14.858;2023-06-22T05:26:32;97692.31;;;25.18;67.34
71889;BME280;59762;49.998;14.858;2023-06-22T05:29:00;97691.28;;;25.63;66.70
71889;BME280;59762;49.998;14.858;2023-06-22T05:31:27;97690.03;;;25.99;65.54
71889;BME280;59762;49.998;14.858;2023-06-22T05:33:53;97693.53;;;25.66;66.17
71889;BME280;59762;49.998;14.858;2023-06-22T05:36:20;97691.69;;;26.54;64.15
71889;BME280;59762;49.998;14.858;2023-06-22T05:38:47;97693.63;;;26.37;63.90
71889;BME280;59762;49.998;14.858;2023-06-22T05:41:13;97693.00;;;26.14;64.92
71889;BME280;59762;49.998;14.858;2023-06-22T05:43:39;97694.25;;;26.06;64.85
71889;BME280;59762;49.998;14.858;2023-06-22T05:46:05;97708.19;;;26.05;64.77
71889;BME280;59762;49.998;14.858;2023-06-22T05:48:31;97705.75;;;26.41;63.94
71889;BME280;59762;49.998;14.858;2023-06-22T05:50:57;97706.53;;;26.37;64.55
71889;BME280;59762;49.998;14.858;2023-06-22T05:53:23;97707.31;;;26.54;62.96
71889;BME280;59762;49.998;14.858;2023-06-22T05:55:49;97710.91;;;26.38;64.52
71889;BME280;59762;49.998;14.858;2023-06-22T05:58:14;97721.44;;;26.62;61.46
71889;BME280;59762;49.998;14.858;2023-06-22T06:00:41;97731.41;;;26.68;62.51
71889;BME280;59762;49.998;14.858;2023-06-22T06:03:09;97722.94;;;26.04;64.31
71889;BME280;59762;49.998;14.858;2023-06-22T06:05:36;97727.94;;;25.79;64.40
71889;BME280;59762;49.998;14.858;2023-06-22T06:08:03;97724.88;;;26.20;65.05
71889;BME280;59762;49.998;14.858;2023-06-22T06:10:33;97740.47;;;26.91;61.96
71889;BME280;59762;49.998;14.858;2023-06-22T06:13:00;97733.00;;;27.24;60.56
71889;BME280;59762;49.998;14.858;2023-06-22T06:15:30;97737.28;;;26.98;60.40
71889;BME280;59762;49.998;14.858;2023-06-22T06:17:56;97730.00;;;27.74;59.30
71889;BME280;59762;49.998;14.858;2023-06-22T06:20:25;97728.25;;;26.98;61.30
71889;BME280;59762;49.998;14.858;2023-06-22T06:22:51;97730.97;;;26.98;61.56
71889;BME280;59762;49.998;14.858;2023-06-22T06:25:18;97735.50;;;27.52;59.58
71889;BME280;59762;49.998;14.858;2023-06-22T06:27:46;97726.44;;;26.49;63.11
71889;BME280;59762;49.998;14.858;2023-06-22T06:30:14;97733.50;;;26.83;62.50
71889;BME280;59762;49.998;14.858;2023-06-22T06:32:40;97734.09;;;26.85;61.44
71889;BME280;59762;49.998;14.858;2023-06-22T06:35:07;97728.31;;;26.48;63.66
71889;BME280;59762;49.998;14.858;2023-06-22T06:37:38;97729.66;;;26.62;62.95
71889;BME280;59762;49.998;14.858;2023-06-22T06:40:07;97730.19;;;26.81;62.57
71889;BME280;59762;49.998;14.858;2023-06-22T06:42:37;97723.63;;;27.20;61.53
71889;BME280;59762;49.998;14.858;2023-06-22T06:45:05;97726.38;;;26.82;61.69
71889;BME280;59762;49.998;14.858;2023-06-22T06:47:30;97726.00;;;26.40;64.45
71889;BME280;59762;49.998;14.858;2023-06-22T06:49:56;97723.63;;;26.11;64.78
71889;BME280;59762;49.998;14.858;2023-06-22T06:52:22;97719.97;;;25.61;67.36
71889;BME280;59762;49.998;14.858;2023-06-22T06:54:48;97721.78;;;25.27;67.90
71889;BME280;59762;49.998;14.858;2023-06-22T06:57:13;97725.19;;;25.62;68.40
71889;BME280;59762;49.998;14.858;2023-06-22T06:59:40;97719.16;;;25.32;67.42
71889;BME280;59762;49.998;14.858;2023-06-22T07:02:06;97725.09;;;25.57;66.32
71889;BME280;59762;49.998;14.858;2023-06-22T07:04:32;97714.28;;;25.23;67.88
71889;BME280;59762;49.998;14.858;2023-06-22T07:07:00;97715.47;;;25.27;67.46
71889;BME280;59762;49.998;14.858;2023-06-22T07:09:26;97715.31;;;25.33;69.52
71889;BME280;59762;49.998;14.858;2023-06-22T07:11:52;97709.22;;;25.15;66.78
71889;BME280;59762;49.998;14.858;2023-06-22T07:14:18;97711.81;;;25.49;67.37
71889;BME280;59762;49.998;14.858;2023-06-22T07:16:43;97715.00;;;25.30;66.26
71889;BME280;59762;49.998;14.858;2023-06-22T07:19:11;97712.13;;;25.36;67.62
71889;BME280;59762;49.998;14.858;2023-06-22T07:21:36;97717.19;;;25.05;68.20
71889;BME280;59762;49.998;14.858;2023-06-22T07:24:02;97709.38;;;25.36;67.60
71889;BME280;59762;49.998;14.858;2023-06-22T07:26:28;97697.75;;;25.57;69.64
71889;BME280;59762;49.998;14.858;2023-06-22T07:28:53;97688.91;;;25.39;67.76
71889;BME280;59762;49.998;14.858;2023-06-22T07:31:19;97690.72;;;25.61;66.21
71889;BME280;59762;49.998;14.858;2023-06-22T07:33:45;97692.16;;;25.24;66.72
71889;BME280;59762;49.998;14.858;2023-06-22T07:36:10;97688.16;;;25.15;70.11
71889;BME280;59762;49.998;14.858;2023-06-22T07:38:36;97697.56;;;25.47;67.17
71889;BME280;59762;49.998;14.858;2023-06-22T07:41:02;97688.78;;;25.45;68.08
71889;BME280;59762;49.998;14.858;2023-06-22T07:43:31;97687.44;;;25.76;68.74
71889;BME280;59762;49.998;14.858;2023-06-22T07:45:58;97694.41;;;25.39;66.26
71889;BME280;59762;49.998;14.858;2023-06-22T07:48:24;97685.06;;;25.51;66.64
71889;BME280;59762;49.998;14.858;2023-06-22T07:50:49;97685.97;;;26.01;67.88
71889;BME280;59762;49.998;14.858;2023-06-22T07:53:15;97684.72;;;26.09;66.38
71889;BME280;59762;49.998;14.858;2023-06-22T07:55:41;97682.38;;;25.84;65.84
71889;BME280;59762;49.998;14.858;2023-06-22T07:58:06;97679.13;;;25.87;69.50
71889;BME280;59762;49.998;14.858;2023-06-22T08:00:33;97684.88;;;26.02;66.05
71889;BME280;59762;49.998;14.858;2023-06-22T08:03:00;97677.03;;;26.06;67.86
71889;BME280;59762;49.998;14.858;2023-06-22T08:05:25;97675.34;;;26.21;66.96
71889;BME280;59762;49.998;14.858;2023-06-22T08:07:51;97675.69;;;26.08;66.17
71889;BME280;59762;49.998;14.858;2023-06-22T08:10:17;97670.09;;;25.87;67.18
71889;BME280;59762;49.998;14.858;2023-06-22T08:12:43;97664.53;;;25.82;64.33
71889;BME280;59762;49.998;14.858;2023-06-22T08:15:09;97659.50;;;25.90;65.62
71889;BME280;59762;49.998;14.858;2023-06-22T08:17:36;97665.09;;;25.95;64.57
71889;BME280;59762;49.998;14.858;2023-06-22T08:20:03;97667.59;;;26.51;65.92
71889;BME280;59762;49.998;14.858;2023-06-22T08:22:35;97661.41;;;26.23;61.67
71889;BME280;59762;49.998;14.858;2023-06-22T08:25:03;97667.31;;;26.15;64.34
71889;BME280;59762;49.998;14.858;2023-06-22T08:27:32;97661.16;;;26.08;62.63
71889;BME280;59762;49.998;14.858;2023-06-22T08:29:58;97649.78;;;25.83;63.20
71889;BME280;59762;49.998;14.858;2023-06-22T08:32:28;97654.53;;;25.71;62.13
71889;BME280;59762;49.998;14.858;2023-06-22T08:34:57;97648.19;;;25.87;63.63
71889;BME280;59762;49.998;14.858;2023-06-22T08:37:23;97641.91;;;25.86;63.12
71889;BME280;59762;49.998;14.858;2023-06-22T08:39:58;97643.75;;;25.97;62.10
71889;BME280;59762;49.998;14.858;2023-06-22T08:42:24;97640.00;;;25.87;61.94
71889;BME280;59762;49.998;14.858;2023-06-22T08:44:51;97633.94;;;26.34;63.69
71889;BME280;59762;49.998;14.858;2023-06-22T08:47:16;97642.41;;;26.71;63.88
71889;BME280;59762;49.998;14.858;2023-06-22T08:49:42;97630.63;;;26.16;62.95
71889;BME280;59762;49.998;14.858;2023-06-22T08:52:08;97634.97;;;26.50;64.49
71889;BME280;59762;49.998;14.858;2023-06-22T08:54:33;97628.56;;;26.23;62.72
71889;BME280;59762;49.998;14.858;2023-06-22T08:57:03;97633.81;;;26.46;62.61
71889;BME280;59762;49.998;14.858;2023-06-22T08:59:28;97627.69;;;26.39;63.18
71889;BME280;59762;49.998;14.858;2023-06-22T09:01:54;97628.56;;;26.61;62.32
71889;BME280;59762;49.998;14.858;2023-06-22T09:04:20;97629.16;;;26.46;64.36
71889;BME280;59762;49.998;14.858;2023-06-22T09:06:48;97627.06;;;26.53;63.08
71889;BME280;59762;49.998;14.858;2023-06-22T09:09:15;97628.72;;;26.54;64.16
71889;BME280;59762;49.998;14.858;2023-06-22T09:11:41;97626.91;;;26.60;60.52
71889;BME280;59762;49.998;14.858;2023-06-22T09:14:07;97618.75;;;26.87;61.34
71889;BME280;59762;49.998;14.858;2023-06-22T09:16:33;97620.00;;;27.01;62.73
71889;BME280;59762;49.998;14.858;2023-06-22T09:18:59;97612.25;;;26.92;62.33
71889;BME280;59762;49.998;14.858;2023-06-22T09:21:25;97617.63;;;27.09;62.61
71889;BME280;59762;49.998;14.858;2023-06-22T09:23:51;97612.03;;;26.99;60.23
71889;BME280;59762;49.998;14.858;2023-06-22T09:26:20;97611.59;;;26.42;62.45
71889;BME280;59762;49.998;14.858;2023-06-22T09:28:46;97603.06;;;26.82;63.34
71889;BME280;59762;49.998;14.858;2023-06-22T09:31:12;97609.44;;;26.88;63.50
71889;BME280;59762;49.998;14.858;2023-06-22T09:33:40;97610.03;;;26.68;63.22
71889;BME280;59762;49.998;14.858;2023-06-22T09:36:08;97610.59;;;26.92;61.45
71889;BME280;59762;49.998;14.858;2023-06-22T09:38:35;97605.81;;;26.82;61.92
71889;BME280;59762;49.998;14.858;2023-06-22T09:41:01;97599.81;;;26.63;61.18
71889;BME280;59762;49.998;14.858;2023-06-22T09:43:27;97596.84;;;27.35;61.54
71889;BME280;59762;49.998;14.858;2023-06-22T09:45:53;97600.94;;;27.32;59.78
71889;BME280;59762;49.998;14.858;2023-06-22T09:48:18;97596.41;;;27.21;60.95
71889;BME280;59762;49.998;14.858;2023-06-22T09:50:44;97594.03;;;27.30;62.07
71889;BME280;59762;49.998;14.858;2023-06-22T09:53:10;97595.75;;;27.36;60.51
71889;BME280;59762;49.998;14.858;2023-06-22T09:55:35;97594.59;;;27.32;60.05
71889;BME280;59762;49.998;14.858;2023-06-22T09:58:01;97587.63;;;27.51;61.11
71889;BME280;59762;49.998;14.858;2023-06-22T10:00:27;97584.75;;;27.62;60.31
71889;BME280;59762;49.998;14.858;2023-06-22T10:02:52;97591.22;;;27.51;61.29
71889;BME280;59762;49.998;14.858;2023-06-22T10:05:18;97592.00;;;27.78;61.58
71889;BME280;59762;49.998;14.858;2023-06-22T10:07:44;97590.75;;;27.59;61.68
71889;BME280;59762;49.998;14.858;2023-06-22T10:10:11;97590.84;;;27.74;60.88
71889;BME280;59762;49.998;14.858;2023-06-22T10:12:41;97581.47;;;27.34;60.82
71889;BME280;59762;49.998;14.858;2023-06-22T10:15:08;97591.59;;;27.60;60.60
71889;BME280;59762;49.998;14.858;2023-06-22T10:17:33;97580.28;;;27.83;60.36
71889;BME280;59762;49.998;14.858;2023-06-22T10:20:00;97577.09;;;27.69;60.63
71889;BME280;59762;49.998;14.858;2023-06-22T10:22:26;97577.94;;;28.01;60.19
71889;BME280;59762;49.998;14.858;2023-06-22T10:24:52;97581.16;;;28.35;60.25
71889;BME280;59762;49.998;14.858;2023-06-22T10:27:17;97574.91;;;28.03;58.28
71889;BME280;59762;49.998;14.858;2023-06-22T10:29:43;97572.91;;;27.88;59.31
71889;BME280;59762;49.998;14.858;2023-06-22T10:32:09;97576.38;;;28.15;59.54
71889;BME280;59762;49.998;14.858;2023-06-22T10:34:35;97571.31;;;27.97;59.25
71889;BME280;59762;49.998;14.858;2023-06-22T10:37:00;97568.31;;;27.99;59.53
71889;BME280;59762;49.998;14.858;2023-06-22T10:39:26;97567.25;;;28.56;59.99
71889;BME280;59762;49.998;14.858;2023-06-22T10:41:51;97568.34;;;28.50;59.63
71889;BME280;59762;49.998;14.858;2023-06-22T10:44:17;97566.16;;;28.57;57.50
71889;BME280;59762;49.998;14.858;2023-06-22T10:46:43;97569.53;;;28.23;57.92
71889;BME280;59762;49.998;14.858;2023-06-22T10:49:09;97574.38;;;28.47;58.83
71889;BME280;59762;49.998;14.858;2023-06-22T10:51:34;97567.09;;;28.78;58.26
71889;BME280;59762;49.998;14.858;2023-06-22T10:54:00;97563.88;;;29.06;58.21
71889;BME280;59762;49.998;14.858;2023-06-22T10:56:26;97562.63;;;28.62;60.23
71889;BME280;59762;49.998;14.858;2023-06-22T10:58:51;97561.88;;;28.76;58.30
71889;BME280;59762;49.998;14.858;2023-06-22T11:01:17;97559.34;;;28.65;59.90
71889;BME280;59762;49.998;14.858;2023-06-22T11:03:43;97548.09;;;28.71;57.11
71889;BME280;59762;49.998;14.858;2023-06-22T11:06:08;97548.25;;;27.98;59.51
71889;BME280;59762;49.998;14.858;2023-06-22T11:08:34;97548.66;;;28.17;59.26
71889;BME280;59762;49.998;14.858;2023-06-22T11:10:59;97543.47;;;28.87;59.43
71889;BME280;59762;49.998;14.858;2023-06-22T11:13:25;97540.28;;;29.30;57.71
71889;BME280;59762;49.998;14.858;2023-06-22T11:15:51;97534.78;;;28.43;58.08
71889;BME280;59762;49.998;14.858;2023-06-22T11:18:16;97535.97;;;27.74;61.04
71889;BME280;59762;49.998;14.858;2023-06-22T11:20:42;97535.38;;;27.99;61.66
71889;BME280;59762;49.998;14.858;2023-06-22T11:23:08;97530.84;;;28.29;60.74
71889;BME280;59762;49.998;14.858;2023-06-22T11:25:33;97533.00;;;28.22;57.76
71889;BME280;59762;49.998;14.858;2023-06-22T11:28:04;97536.03;;;28.21;60.10
71889;BME280;59762;49.998;14.858;2023-06-22T11:30:30;97522.50;;;28.61;60.07
71889;BME280;59762;49.998;14.858;2023-06-22T11:32:58;97528.59;;;28.73;57.39
71889;BME280;59762;49.998;14.858;2023-06-22T11:35:23;97519.84;;;28.24;59.99
71889;BME280;59762;49.998;14.858;2023-06-22T11:37:49;97515.66;;;28.68;58.13
71889;BME280;59762;49.998;14.858;2023-06-22T11:40:15;97514.97;;;28.36;57.31
71889;BME280;59762;49.998;14.858;2023-06-22T11:42:41;97512.28;;;28.41;57.71
71889;BME280;59762;49.998;14.858;2023-06-22T11:45:06;97503.66;;;28.28;59.38
71889;BME280;59762;49.998;14.858;2023-06-22T11:47:32;97504.81;;;29.18;56.20
71889;BME280;59762;49.998;14.858;2023-06-22T11:49:58;97500.69;;;29.26;56.81
71889;BME280;59762;49.998;14.858;2023-06-22T11:52:23;97507.84;;;29.47;57.88
71889;BME280;59762;49.998;14.858;2023-06-22T11:54:49;97497.38;;;29.24;55.89
71889;BME280;59762;49.998;14.858;2023-06-22T11:57:15;97490.47;;;29.26;57.27
71889;BME280;59762;49.998;14.858;2023-06-22T11:59:40;97485.53;;;29.48;54.05
71889;BME280;59762;49.998;14.858;2023-06-22T12:02:06;97476.47;;;29.33;55.21
71889;BME280;59762;49.998;14.858;2023-06-22T12:04:33;97481.63;;;28.89;55.30
71889;BME280;59762;49.998;14.858;2023-06-22T12:06:58;97479.22;;;29.18;54.00
71889;BME280;59762;49.998;14.858;2023-06-22T12:09:24;97477.84;;;29.20;54.02
71889;BME280;59762;49.998;14.858;2023-06-22T12:11:50;97473.19;;;29.21;51.97
71889;BME280;59762;49.998;14.858;2023-06-22T12:14:15;97481.66;;;28.99;54.44
71889;BME280;59762;49.998;14.858;2023-06-22T12:16:41;97486.09;;;29.65;53.19
71889;BME280;59762;49.998;14.858;2023-06-22T12:19:08;97485.81;;;29.37;51.58
71889;BME280;59762;49.998;14.858;2023-06-22T12:21:33;97483.31;;;29.00;54.86
71889;BME280;59762;49.998;14.858;2023-06-22T12:23:59;97485.56;;;29.28;52.71
71889;BME280;59762;49.998;14.858;2023-06-22T12:26:25;97477.59;;;29.12;52.22
71889;BME280;59762;49.998;14.858;2023-06-22T12:28:50;97478.38;;;29.02;53.94
71889;BME280;59762;49.998;14.858;2023-06-22T12:31:16;97470.38;;;28.86;53.18
71889;BME280;59762;49.998;14.858;2023-06-22T12:33:42;97472.63;;;29.19;54.30
71889;BME280;59762;49.998;14.858;2023-06-22T12:36:08;97474.97;;;28.55;55.07
71889;BME280;59762;49.998;14.858;2023-06-22T12:38:33;97474.19;;;28.80;56.15
71889;BME280;59762;49.998;14.858;2023-06-22T12:40:59;97473.59;;;28.68;55.60
71889;BME280;59762;49.998;14.858;2023-06-22T12:43:25;97469.47;;;28.70;55.25
71889;BME280;59762;49.998;14.858;2023-06-22T12:45:50;97472.06;;;29.32;54.71
71889;BME280;59762;49.998;14.858;2023-06-22T12:48:16;97472.28;;;28.95;54.79
71889;BME280;59762;49.998;14.858;2023-06-22T12:50:42;97461.28;;;28.90;56.14
71889;BME280;59762;49.998;14.858;2023-06-22T12:53:08;97460.25;;;29.01;54.04
71889;BME280;59762;49.998;14.858;2023-06-22T12:55:33;97455.00;;;28.95;55.06
71889;BME280;59762;49.998;14.858;2023-06-22T12:57:59;97455.78;;;28.90;55.03